sensor_id;sensor_type;location;lat;lon;timestamp;P1;durP1;ratioP1;P2;durP2;ratioP2
36839;SDS011;24406;51.640;9.566;2023-08-17T00:01:23;16.10;;;13.00;;
36839;SDS011;24406;51.640;9.566;2023-08-17T00:06:26;15.98;;;13.27;;
36839;SDS011;24406;51.640;9.566;2023-08-17T00:11:29;13.45;;;11.98;;
36839;SDS011;24406;51.640;9.566;2023-08-17T00:16:31;12.20;;;10.95;;
36839;SDS011;24406;51.640;9.566;2023-08-17T00:21:35;12.85;;;11.55;;
36839;SDS011;24406;51.640;9.566;2023-08-17T00:26:37;13.43;;;11.85;;
36839;SDS011;24406;51.640;9.566;2023-08-17T00:31:40;13.93;;;11.30;;
36839;SDS011;24406;51.640;9.566;2023-08-17T00:36:43;13.43;;;11.65;;
36839;SDS011;24406;51.640;9.566;2023-08-17T00:41:45;11.27;;;10.20;;
36839;SDS011;24406;51.640;9.566;2023-08-17T00:46:47;12.98;;;11.48;;
36839;SDS011;24406;51.640;9.566;2023-08-17T00:51:50;11.50;;;10.38;;
36839;SDS011;24406;51.640;9.566;2023-08-17T00:56:52;10.70;;;9.05;;
36839;SDS011;24406;51.640;9.566;2023-08-17T01:01:54;10.82;;;8.38;;
36839;SDS011;24406;51.640;9.566;2023-08-17T01:06:57;9.95;;;8.75;;
36839;SDS011;24406;51.640;9.566;2023-08-17T01:12:00;9.57;;;8.63;;
36839;SDS011;24406;51.640;9.566;2023-08-17T01:17:06;10.20;;;9.30;;
36839;SDS011;24406;51.640;9.566;2023-08-17T01:22:14;9.15;;;8.20;;
36839;SDS011;24406;51.640;9.566;2023-08-17T01:27:17;9.05;;;8.35;;
36839;SDS011;24406;51.640;9.566;2023-08-17T01:32:22;9.40;;;8.50;;
36839;SDS011;24406;51.640;9.566;2023-08-17T01:37:28;8.90;;;8.10;;
36839;SDS011;24406;51.640;9.566;2023-08-17T01:42:31;9.82;;;8.85;;
36839;SDS011;24406;51.640;9.566;2023-08-17T01:47:33;10.02;;;9.23;;
36839;SDS011;24406;51.640;9.566;2023-08-17T01:52:36;10.13;;;9.10;;
36839;SDS011;24406;51.640;9.566;2023-08-17T01:57:39;9.80;;;9.00;;
36839;SDS011;24406;51.640;9.566;2023-08-17T02:02:41;9.23;;;8.52;;
36839;SDS011;24406;51.640;9.566;2023-08-17T02:07:43;8.57;;;7.63;;
36839;SDS011;24406;51.640;9.566;2023-08-17T02:12:46;9.63;;;7.60;;
36839;SDS011;24406;51.640;9.566;2023-08-17T02:17:51;9.93;;;8.93;;
36839;SDS011;24406;51.640;9.566;2023-08-17T02:22:53;10.75;;;9.75;;
36839;SDS011;24406;51.640;9.566;2023-08-17T02:27:58;10.73;;;9.48;;
36839;SDS011;24406;51.640;9.566;2023-08-17T02:33:00;12.50;;;10.35;;
36839;SDS011;24406;51.640;9.566;2023-08-17T02:38:02;12.38;;;11.25;;
36839;SDS011;24406;51.640;9.566;2023-08-17T02:43:06;12.20;;;11.00;;
36839;SDS011;24406;51.640;9.566;2023-08-17T02:48:07;12.63;;;11.63;;
36839;SDS011;24406;51.640;9.566;2023-08-17T02:53:09;14.68;;;13.30;;
36839;SDS011;24406;51.640;9.566;2023-08-17T02:58:12;17.35;;;15.52;;
36839;SDS011;24406;51.640;9.566;2023-08-17T03:03:13;13.73;;;12.43;;
36839;SDS011;24406;51.640;9.566;2023-08-17T03:08:15;14.13;;;12.23;;
36839;SDS011;24406;51.640;9.566;2023-08-17T03:13:18;14.35;;;13.02;;
36839;SDS011;24406;51.640;9.566;2023-08-17T03:18:20;13.48;;;12.27;;
36839;SDS011;24406;51.640;9.566;2023-08-17T03:23:22;14.63;;;13.23;;
36839;SDS011;24406;51.640;9.566;2023-08-17T03:28:26;13.55;;;12.40;;
36839;SDS011;24406;51.640;9.566;2023-08-17T03:33:28;13.60;;;12.43;;
36839;SDS011;24406;51.640;9.566;2023-08-17T03:38:30;12.93;;;11.77;;
36839;SDS011;24406;51.640;9.566;2023-08-17T03:43:33;10.93;;;10.02;;
36839;SDS011;24406;51.640;9.566;2023-08-17T03:48:35;13.25;;;12.25;;
36839;SDS011;24406;51.640;9.566;2023-08-17T03:53:36;13.52;;;12.18;;
36839;SDS011;24406;51.640;9.566;2023-08-17T03:58:40;13.90;;;12.60;;
36839;SDS011;24406;51.640;9.566;2023-08-17T04:03:44;15.77;;;14.18;;
36839;SDS011;24406;51.640;9.566;2023-08-17T04:08:45;15.90;;;13.77;;
36839;SDS011;24406;51.640;9.566;2023-08-17T04:13:48;16.50;;;14.90;;
36839;SDS011;24406;51.640;9.566;2023-08-17T04:18:53;14.90;;;13.57;;
36839;SDS011;24406;51.640;9.566;2023-08-17T04:23:55;16.92;;;15.48;;
36839;SDS011;24406;51.640;9.566;2023-08-17T04:28:58;16.42;;;14.98;;
36839;SDS011;24406;51.640;9.566;2023-08-17T04:34:02;18.45;;;16.55;;
36839;SDS011;24406;51.640;9.566;2023-08-17T04:39:04;16.13;;;14.60;;
36839;SDS011;24406;51.640;9.566;2023-08-17T04:44:10;15.50;;;14.00;;
36839;SDS011;24406;51.640;9.566;2023-08-17T04:49:12;14.90;;;13.43;;
36839;SDS011;24406;51.640;9.566;2023-08-17T04:54:14;15.23;;;13.95;;
36839;SDS011;24406;51.640;9.566;2023-08-17T04:59:17;14.88;;;13.55;;
36839;SDS011;24406;51.640;9.566;2023-08-17T05:04:19;17.80;;;14.43;;
36839;SDS011;24406;51.640;9.566;2023-08-17T05:09:42;18.73;;;16.60;;
36839;SDS011;24406;51.640;9.566;2023-08-17T05:21:42;23.88;;;21.20;;
36839;SDS011;24406;51.640;9.566;2023-08-17T05:26:44;28.00;;;20.70;;
36839;SDS011;24406;51.640;9.566;2023-08-17T05:31:47;21.98;;;19.65;;
36839;SDS011;24406;51.640;9.566;2023-08-17T05:36:50;26.42;;;19.70;;
36839;SDS011;24406;51.640;9.566;2023-08-17T05:41:51;24.80;;;18.45;;
36839;SDS011;24406;51.640;9.566;2023-08-17T05:46:53;21.05;;;18.92;;
36839;SDS011;24406;51.640;9.566;2023-08-17T05:51:56;20.52;;;18.38;;
36839;SDS011;24406;51.640;9.566;2023-08-17T05:57:00;19.00;;;17.13;;
36839;SDS011;24406;51.640;9.566;2023-08-17T06:02:02;21.60;;;16.65;;
36839;SDS011;24406;51.640;9.566;2023-08-17T06:07:06;18.75;;;16.85;;
36839;SDS011;24406;51.640;9.566;2023-08-17T06:12:07;19.73;;;17.45;;
36839;SDS011;24406;51.640;9.566;2023-08-17T06:17:09;16.95;;;15.20;;
36839;SDS011;24406;51.640;9.566;2023-08-17T06:22:12;17.15;;;15.45;;
36839;SDS011;24406;51.640;9.566;2023-08-17T06:27:14;17.45;;;15.85;;
36839;SDS011;24406;51.640;9.566;2023-08-17T06:32:21;16.63;;;14.88;;
36839;SDS011;24406;51.640;9.566;2023-08-17T06:37:33;15.00;;;13.68;;
36839;SDS011;24406;51.640;9.566;2023-08-17T06:42:35;15.55;;;14.25;;
36839;SDS011;24406;51.640;9.566;2023-08-17T06:47:36;16.60;;;14.88;;
36839;SDS011;24406;51.640;9.566;2023-08-17T06:52:40;16.40;;;14.57;;
36839;SDS011;24406;51.640;9.566;2023-08-17T06:57:41;13.15;;;11.98;;
36839;SDS011;24406;51.640;9.566;2023-08-17T07:02:43;12.27;;;11.18;;
36839;SDS011;24406;51.640;9.566;2023-08-17T07:07:46;11.63;;;10.63;;
36839;SDS011;24406;51.640;9.566;2023-08-17T07:12:48;14.25;;;12.88;;
36839;SDS011;24406;51.640;9.566;2023-08-17T07:17:49;13.63;;;12.45;;
36839;SDS011;24406;51.640;9.566;2023-08-17T07:22:52;15.45;;;13.82;;
36839;SDS011;24406;51.640;9.566;2023-08-17T07:27:54;12.73;;;11.48;;
36839;SDS011;24406;51.640;9.566;2023-08-17T07:32:55;9.50;;;8.70;;
36839;SDS011;24406;51.640;9.566;2023-08-17T07:37:58;10.40;;;9.25;;
36839;SDS011;24406;51.640;9.566;2023-08-17T07:43:00;9.93;;;8.95;;
36839;SDS011;24406;51.640;9.566;2023-08-17T07:48:03;9.25;;;8.45;;
36839;SDS011;24406;51.640;9.566;2023-08-17T07:53:06;13.15;;;10.75;;
36839;SDS011;24406;51.640;9.566;2023-08-17T07:58:08;9.85;;;9.05;;
36839;SDS011;24406;51.640;9.566;2023-08-17T08:03:10;9.32;;;8.63;;
36839;SDS011;24406;51.640;9.566;2023-08-17T08:08:13;9.05;;;8.27;;
36839;SDS011;24406;51.640;9.566;2023-08-17T08:13:16;8.40;;;7.70;;
36839;SDS011;24406;51.640;9.566;2023-08-17T08:18:18;8.88;;;8.02;;
36839;SDS011;24406;51.640;9.566;2023-08-17T08:23:21;8.55;;;7.72;;
36839;SDS011;24406;51.640;9.566;2023-08-17T08:28:22;8.45;;;7.75;;
36839;SDS011;24406;51.640;9.566;2023-08-17T08:33:24;8.40;;;7.70;;
36839;SDS011;24406;51.640;9.566;2023-08-17T08:38:27;8.40;;;6.85;;
36839;SDS011;24406;51.640;9.566;2023-08-17T08:43:29;6.78;;;6.07;;
36839;SDS011;24406;51.640;9.566;2023-08-17T08:48:31;5.95;;;5.13;;
36839;SDS011;24406;51.640;9.566;2023-08-17T08:53:36;14.43;;;4.88;;
36839;SDS011;24406;51.640;9.566;2023-08-17T08:58:39;6.28;;;4.30;;
36839;SDS011;24406;51.640;9.566;2023-08-17T09:03:42;4.60;;;4.07;;
36839;SDS011;24406;51.640;9.566;2023-08-17T09:08:47;2.92;;;2.72;;
36839;SDS011;24406;51.640;9.566;2023-08-17T09:13:49;4.75;;;3.65;;
36839;SDS011;24406;51.640;9.566;2023-08-17T09:18:52;8.73;;;3.42;;
36839;SDS011;24406;51.640;9.566;2023-08-17T09:23:55;4.30;;;3.00;;
36839;SDS011;24406;51.640;9.566;2023-08-17T09:28:57;3.20;;;2.30;;
36839;SDS011;24406;51.640;9.566;2023-08-17T09:34:02;2.65;;;2.08;;
36839;SDS011;24406;51.640;9.566;2023-08-17T09:39:08;3.35;;;3.05;;
36839;SDS011;24406;51.640;9.566;2023-08-17T09:44:09;6.43;;;3.03;;
36839;SDS011;24406;51.640;9.566;2023-08-17T09:49:12;2.72;;;2.53;;
36839;SDS011;24406;51.640;9.566;2023-08-17T09:54:20;4.07;;;2.83;;
36839;SDS011;24406;51.640;9.566;2023-08-17T09:59:23;6.05;;;2.78;;
36839;SDS011;24406;51.640;9.566;2023-08-17T10:04:25;3.95;;;2.80;;
36839;SDS011;24406;51.640;9.566;2023-08-17T10:09:31;4.40;;;2.83;;
36839;SDS011;24406;51.640;9.566;2023-08-17T10:14:39;4.88;;;2.20;;
36839;SDS011;24406;51.640;9.566;2023-08-17T10:19:43;2.75;;;2.50;;
36839;SDS011;24406;51.640;9.566;2023-08-17T10:24:46;4.97;;;3.10;;
36839;SDS011;24406;51.640;9.566;2023-08-17T10:29:49;3.30;;;3.00;;
36839;SDS011;24406;51.640;9.566;2023-08-17T12:32:12;1.42;;;1.33;;
36839;SDS011;24406;51.640;9.566;2023-08-17T12:37:18;1.40;;;1.30;;
36839;SDS011;24406;51.640;9.566;2023-08-17T12:42:23;2.75;;;1.60;;
36839;SDS011;24406;51.640;9.566;2023-08-17T12:47:26;2.42;;;1.50;;
36839;SDS011;24406;51.640;9.566;2023-08-17T12:52:27;1.50;;;1.40;;
36839;SDS011;24406;51.640;9.566;2023-08-17T12:57:29;1.40;;;1.30;;
36839;SDS011;24406;51.640;9.566;2023-08-17T13:02:32;1.50;;;1.40;;
36839;SDS011;24406;51.640;9.566;2023-08-17T13:07:33;6.63;;;1.88;;
36839;SDS011;24406;51.640;9.566;2023-08-17T13:12:35;2.22;;;1.60;;
36839;SDS011;24406;51.640;9.566;2023-08-17T13:17:38;2.95;;;1.65;;
36839;SDS011;24406;51.640;9.566;2023-08-17T13:22:40;1.63;;;1.52;;
36839;SDS011;24406;51.640;9.566;2023-08-17T13:27:41;2.88;;;1.73;;
36839;SDS011;24406;51.640;9.566;2023-08-17T13:32:44;1.80;;;1.70;;
36839;SDS011;24406;51.640;9.566;2023-08-17T13:37:49;1.83;;;1.73;;
36839;SDS011;24406;51.640;9.566;2023-08-17T13:42:52;2.05;;;1.95;;
36839;SDS011;24406;51.640;9.566;2023-08-17T13:47:55;1.75;;;1.63;;
36839;SDS011;24406;51.640;9.566;2023-08-17T13:53:00;2.25;;;1.80;;
36839;SDS011;24406;51.640;9.566;2023-08-17T13:58:02;1.90;;;1.80;;
36839;SDS011;24406;51.640;9.566;2023-08-17T14:03:05;2.33;;;1.63;;
36839;SDS011;24406;51.640;9.566;2023-08-17T14:08:07;2.38;;;1.73;;
36839;SDS011;24406;51.640;9.566;2023-08-17T14:13:11;1.42;;;1.33;;
36839;SDS011;24406;51.640;9.566;2023-08-17T14:18:16;2.15;;;1.90;;
36839;SDS011;24406;51.640;9.566;2023-08-17T14:23:18;1.95;;;1.58;;
36839;SDS011;24406;51.640;9.566;2023-08-17T14:28:19;2.80;;;2.00;;
36839;SDS011;24406;51.640;9.566;2023-08-17T14:33:23;2.13;;;2.03;;
36839;SDS011;24406;51.640;9.566;2023-08-17T14:38:24;2.67;;;2.45;;
36839;SDS011;24406;51.640;9.566;2023-08-17T14:43:26;4.57;;;2.90;;
36839;SDS011;24406;51.640;9.566;2023-08-17T14:48:41;3.00;;;2.85;;
36839;SDS011;24406;51.640;9.566;2023-08-17T14:53:43;3.05;;;2.72;;
36839;SDS011;24406;51.640;9.566;2023-08-17T14:58:45;3.40;;;3.20;;
36839;SDS011;24406;51.640;9.566;2023-08-17T15:03:54;4.03;;;2.90;;
36839;SDS011;24406;51.640;9.566;2023-08-17T15:08:58;5.22;;;3.03;;
36839;SDS011;24406;51.640;9.566;2023-08-17T15:14:00;3.90;;;3.55;;
36839;SDS011;24406;51.640;9.566;2023-08-17T15:19:03;5.45;;;3.28;;
36839;SDS011;24406;51.640;9.566;2023-08-17T15:24:05;4.82;;;4.50;;
36839;SDS011;24406;51.640;9.566;2023-08-17T15:29:06;4.97;;;4.47;;
36839;SDS011;24406;51.640;9.566;2023-08-17T15:34:10;4.43;;;4.07;;
36839;SDS011;24406;51.640;9.566;2023-08-17T15:39:11;4.85;;;4.55;;
36839;SDS011;24406;51.640;9.566;2023-08-17T15:44:13;5.43;;;4.15;;
36839;SDS011;24406;51.640;9.566;2023-08-17T15:49:16;4.25;;;3.90;;
36839;SDS011;24406;51.640;9.566;2023-08-17T15:54:17;4.07;;;3.67;;
36839;SDS011;24406;51.640;9.566;2023-08-17T15:59:19;5.18;;;4.30;;
36839;SDS011;24406;51.640;9.566;2023-08-17T16:04:37;5.57;;;4.60;;
36839;SDS011;24406;51.640;9.566;2023-08-17T16:09:41;7.40;;;4.05;;
36839;SDS011;24406;51.640;9.566;2023-08-17T16:14:43;4.43;;;4.13;;
36839;SDS011;24406;51.640;9.566;2023-08-17T16:19:52;5.95;;;4.85;;
36839;SDS011;24406;51.640;9.566;2023-08-17T16:24:53;6.10;;;5.35;;
36839;SDS011;24406;51.640;9.566;2023-08-17T16:29:58;16.92;;;6.03;;
36839;SDS011;24406;51.640;9.566;2023-08-17T16:35:27;6.28;;;5.72;;
36839;SDS011;24406;51.640;9.566;2023-08-17T16:40:28;8.45;;;7.72;;
36839;SDS011;24406;51.640;9.566;2023-08-17T16:45:30;8.52;;;7.93;;
36839;SDS011;24406;51.640;9.566;2023-08-17T16:50:33;7.13;;;6.40;;
36839;SDS011;24406;51.640;9.566;2023-08-17T16:55:34;5.82;;;5.40;;
36839;SDS011;24406;51.640;9.566;2023-08-17T17:00:36;6.45;;;5.85;;
36839;SDS011;24406;51.640;9.566;2023-08-17T17:05:50;7.38;;;6.32;;
36839;SDS011;24406;51.640;9.566;2023-08-17T17:10:52;6.05;;;5.43;;
36839;SDS011;24406;51.640;9.566;2023-08-17T17:15:57;8.15;;;6.15;;
36839;SDS011;24406;51.640;9.566;2023-08-17T17:21:12;7.93;;;6.40;;
36839;SDS011;24406;51.640;9.566;2023-08-17T17:26:16;5.57;;;5.10;;
36839;SDS011;24406;51.640;9.566;2023-08-17T17:31:27;6.50;;;5.35;;
36839;SDS011;24406;51.640;9.566;2023-08-17T17:36:31;5.63;;;5.22;;
36839;SDS011;24406;51.640;9.566;2023-08-17T17:41:43;6.47;;;5.55;;
36839;SDS011;24406;51.640;9.566;2023-08-17T17:52:06;7.72;;;7.03;;
36839;SDS011;24406;51.640;9.566;2023-08-17T17:57:36;10.25;;;6.65;;
36839;SDS011;24406;51.640;9.566;2023-08-17T18:14:25;6.95;;;6.35;;
36839;SDS011;24406;51.640;9.566;2023-08-17T18:20:11;6.72;;;5.97;;
36839;SDS011;24406;51.640;9.566;2023-08-17T18:26:12;9.20;;;8.40;;
36839;SDS011;24406;51.640;9.566;2023-08-17T18:31:14;8.65;;;6.72;;
36839;SDS011;24406;51.640;9.566;2023-08-17T18:36:22;7.90;;;7.30;;
36839;SDS011;24406;51.640;9.566;2023-08-17T18:41:34;8.33;;;7.63;;
36839;SDS011;24406;51.640;9.566;2023-08-17T18:46:37;11.30;;;7.53;;
36839;SDS011;24406;51.640;9.566;2023-08-17T18:51:38;9.70;;;8.80;;
36839;SDS011;24406;51.640;9.566;2023-08-17T18:57:03;8.65;;;7.82;;
36839;SDS011;24406;51.640;9.566;2023-08-17T19:07:23;8.23;;;7.32;;
36839;SDS011;24406;51.640;9.566;2023-08-17T19:12:40;7.63;;;6.80;;
36839;SDS011;24406;51.640;9.566;2023-08-17T19:23:24;9.63;;;8.77;;
36839;SDS011;24406;51.640;9.566;2023-08-17T19:28:40;12.30;;;7.82;;
36839;SDS011;24406;51.640;9.566;2023-08-17T19:33:42;9.52;;;8.52;;
36839;SDS011;24406;51.640;9.566;2023-08-17T19:38:45;9.65;;;8.65;;
36839;SDS011;24406;51.640;9.566;2023-08-17T19:44:07;9.40;;;8.50;;
36839;SDS011;24406;51.640;9.566;2023-08-17T19:54:48;9.35;;;7.53;;
36839;SDS011;24406;51.640;9.566;2023-08-17T20:00:58;12.10;;;9.07;;
36839;SDS011;24406;51.640;9.566;2023-08-17T20:06:16;13.57;;;9.05;;
36839;SDS011;24406;51.640;9.566;2023-08-17T20:11:24;11.82;;;10.40;;
36839;SDS011;24406;51.640;9.566;2023-08-17T20:16:32;10.20;;;8.38;;
36839;SDS011;24406;51.640;9.566;2023-08-17T20:27:03;11.90;;;10.65;;
36839;SDS011;24406;51.640;9.566;2023-08-17T20:38:20;10.65;;;9.73;;
36839;SDS011;24406;51.640;9.566;2023-08-17T20:43:26;13.27;;;10.25;;
36839;SDS011;24406;51.640;9.566;2023-08-17T20:48:32;12.85;;;9.68;;
36839;SDS011;24406;51.640;9.566;2023-08-17T20:53:34;11.07;;;9.98;;
36839;SDS011;24406;51.640;9.566;2023-08-17T20:58:56;11.98;;;9.45;;
36839;SDS011;24406;51.640;9.566;2023-08-17T21:04:00;10.73;;;9.50;;
36839;SDS011;24406;51.640;9.566;2023-08-17T21:14:19;12.43;;;8.35;;
36839;SDS011;24406;51.640;9.566;2023-08-17T21:19:32;11.23;;;10.18;;
36839;SDS011;24406;51.640;9.566;2023-08-17T21:24:40;12.43;;;11.13;;
36839;SDS011;24406;51.640;9.566;2023-08-17T21:29:43;12.68;;;11.48;;
36839;SDS011;24406;51.640;9.566;2023-08-17T21:34:45;11.45;;;10.25;;
36839;SDS011;24406;51.640;9.566;2023-08-17T21:39:46;13.90;;;12.50;;
36839;SDS011;24406;51.640;9.566;2023-08-17T21:44:49;15.77;;;13.35;;
36839;SDS011;24406;51.640;9.566;2023-08-17T21:49:51;13.88;;;12.48;;
36839;SDS011;24406;51.640;9.566;2023-08-17T21:54:52;12.73;;;11.52;;
36839;SDS011;24406;51.640;9.566;2023-08-17T21:59:55;11.65;;;10.48;;
36839;SDS011;24406;51.640;9.566;2023-08-17T22:04:57;13.05;;;11.85;;
36839;SDS011;24406;51.640;9.566;2023-08-17T22:09:58;16.15;;;13.02;;
36839;SDS011;24406;51.640;9.566;2023-08-17T22:15:01;17.30;;;13.93;;
36839;SDS011;24406;51.640;9.566;2023-08-17T22:20:03;15.73;;;14.05;;
36839;SDS011;24406;51.640;9.566;2023-08-17T22:25:07;17.10;;;14.10;;
36839;SDS011;24406;51.640;9.566;2023-08-17T22:30:10;14.18;;;12.80;;
36839;SDS011;24406;51.640;9.566;2023-08-17T22:35:12;13.75;;;12.40;;
36839;SDS011;24406;51.640;9.566;2023-08-17T22:40:14;14.48;;;12.98;;
36839;SDS011;24406;51.640;9.566;2023-08-17T22:45:17;14.30;;;12.35;;
36839;SDS011;24406;51.640;9.566;2023-08-17T22:50:18;15.93;;;13.95;;
36839;SDS011;24406;51.640;9.566;2023-08-17T22:55:20;18.42;;;15.30;;
36839;SDS011;24406;51.640;9.566;2023-08-17T23:00:23;17.58;;;13.55;;
36839;SDS011;24406;51.640;9.566;2023-08-17T23:05:24;14.88;;;13.32;;
36839;SDS011;24406;51.640;9.566;2023-08-17T23:10:27;15.13;;;13.50;;
36839;SDS011;24406;51.640;9.566;2023-08-17T23:15:30;14.98;;;13.48;;
36839;SDS011;24406;51.640;9.566;2023-08-17T23:20:32;16.65;;;15.00;;
36839;SDS011;24406;51.640;9.566;2023-08-17T23:25:37;18.15;;;14.20;;
36839;SDS011;24406;51.640;9.566;2023-08-17T23:30:40;14.50;;;12.98;;
36839;SDS011;24406;51.640;9.566;2023-08-17T23:35:42;16.13;;;14.02;;
36839;SDS011;24406;51.640;9.566;2023-08-17T23:40:44;19.33;;;15.93;;
36839;SDS011;24406;51.640;9.566;2023-08-17T23:45:47;23.50;;;17.15;;
36839;SDS011;24406;51.640;9.566;2023-08-17T23:50:48;23.67;;;17.63;;
36839;SDS011;24406;51.640;9.566;2023-08-17T23:55:50;20.55;;;16.83;;
